createdAt,value
2019-05-03T00:02:09.735Z,7.20
2019-05-03T00:04:39.711Z,7.20
2019-05-03T00:07:08.713Z,7.20
2019-05-03T00:09:37.453Z,7.20
2019-05-03T00:12:06.143Z,7.20
2019-05-03T00:14:36.437Z,7.20
2019-05-03T00:17:05.431Z,7.10
2019-05-03T00:19:34.133Z,7.20
2019-05-03T00:22:02.839Z,7.10
2019-05-03T00:24:32.063Z,7.10
2019-05-03T00:27:02.015Z,7.10
2019-05-03T00:29:32.567Z,7.00
2019-05-03T00:32:02.061Z,7.00
2019-05-03T00:34:35.475Z,7.00
2019-05-03T00:37:15.202Z,6.90
2019-05-03T00:39:45.856Z,6.80
2019-05-03T00:42:14.847Z,6.80
2019-05-03T00:44:43.570Z,6.90
2019-05-03T00:47:12.651Z,6.80
2019-05-03T00:49:42.606Z,6.70
2019-05-03T00:52:11.762Z,6.70
2019-05-03T00:54:42.230Z,6.70
2019-05-03T00:57:12.052Z,6.70
2019-05-03T00:59:42.061Z,6.70
2019-05-03T01:02:11.856Z,6.70
2019-05-03T01:04:42.555Z,6.70
2019-05-03T01:07:11.852Z,6.70
2019-05-03T01:09:42.284Z,6.70
2019-05-03T01:12:12.621Z,6.60
2019-05-03T01:14:43.452Z,6.60
2019-05-03T01:17:12.463Z,6.70
2019-05-03T01:19:42.641Z,6.60
2019-05-03T01:22:11.946Z,6.50
2019-05-03T01:24:39.746Z,6.50
2019-05-03T01:27:08.154Z,6.50
2019-05-03T01:29:36.878Z,6.50
2019-05-03T01:32:05.565Z,6.50
2019-05-03T01:34:34.304Z,6.40
2019-05-03T01:37:03.076Z,6.40
2019-05-03T01:39:31.758Z,6.40
2019-05-03T01:42:00.164Z,6.30
2019-05-03T01:44:28.875Z,6.40
2019-05-03T01:46:59.238Z,6.30
2019-05-03T01:49:31.949Z,6.30
2019-05-03T01:52:21.806Z,6.30
2019-05-03T01:54:52.129Z,6.30
2019-05-03T01:57:22.055Z,6.30
2019-05-03T01:59:52.078Z,6.20
2019-05-03T02:02:32.447Z,6.10
2019-05-03T02:05:09.127Z,6.10
2019-05-03T02:07:38.117Z,6.10
2019-05-03T02:10:06.824Z,6.10
2019-05-03T02:12:35.529Z,6.00
2019-05-03T02:15:06.260Z,6.00
2019-05-03T02:17:35.270Z,5.90
2019-05-03T02:20:05.464Z,5.90
2019-05-03T02:22:34.485Z,6.00
2019-05-03T02:25:04.114Z,6.00
2019-05-03T02:27:33.250Z,5.90
2019-05-03T02:30:03.012Z,6.00
2019-05-03T02:32:33.233Z,5.90
2019-05-03T02:35:02.914Z,5.90
2019-05-03T02:37:33.012Z,5.90
2019-05-03T02:40:04.238Z,5.90
2019-05-03T02:42:35.299Z,5.90
2019-05-03T02:45:06.075Z,5.80
2019-05-03T02:47:36.827Z,5.70
2019-05-03T02:50:08.617Z,5.70
2019-05-03T02:52:37.869Z,5.70
2019-05-03T02:55:08.184Z,5.70
2019-05-03T02:57:37.177Z,5.70
2019-05-03T03:00:07.987Z,5.80
2019-05-03T03:02:37.493Z,5.80
2019-05-03T03:05:06.660Z,5.70
2019-05-03T03:07:37.607Z,5.70
2019-05-03T03:10:07.018Z,5.70
2019-05-03T03:12:36.028Z,5.70
2019-05-03T03:15:06.230Z,5.60
2019-05-03T03:17:36.392Z,5.60
2019-05-03T03:20:05.981Z,5.60
2019-05-03T03:22:36.301Z,5.60
2019-05-03T03:25:07.164Z,5.60
2019-05-03T03:27:38.949Z,5.50
2019-05-03T03:30:29.832Z,5.50
2019-05-03T03:33:00.868Z,5.50
2019-05-03T03:35:31.466Z,5.50
2019-05-03T03:38:00.485Z,5.50
2019-05-03T03:40:30.025Z,5.50
2019-05-03T03:42:59.464Z,5.50
2019-05-03T03:45:28.457Z,5.50
2019-05-03T03:47:57.198Z,5.50
2019-05-03T03:50:26.159Z,5.50
2019-05-03T03:52:55.810Z,5.50
2019-05-03T03:55:26.374Z,5.50
2019-05-03T03:57:55.723Z,5.40
2019-05-03T04:00:25.826Z,5.50
2019-05-03T04:02:55.489Z,5.50
2019-05-03T04:05:25.402Z,5.50
2019-05-03T04:07:55.890Z,5.50
2019-05-03T04:10:26.077Z,5.50
2019-05-03T04:12:55.891Z,5.50
2019-05-03T04:15:32.834Z,5.50
2019-05-03T04:18:06.409Z,5.60
2019-05-03T04:20:38.455Z,5.60
2019-05-03T04:23:07.450Z,5.50
2019-05-03T04:25:36.155Z,5.50
2019-05-03T04:28:05.707Z,5.50
2019-05-03T04:30:36.461Z,5.60
2019-05-03T04:33:06.130Z,5.60
2019-05-03T04:35:36.430Z,5.60
2019-05-03T04:38:05.855Z,5.60
2019-05-03T04:40:35.830Z,5.60
2019-05-03T04:43:05.993Z,5.60
2019-05-03T04:45:36.729Z,5.70
2019-05-03T04:48:06.279Z,5.70
2019-05-03T04:50:36.783Z,5.70
2019-05-03T04:53:06.083Z,5.70
2019-05-03T04:55:36.329Z,5.70
2019-05-03T04:58:05.418Z,5.80
2019-05-03T05:00:35.902Z,5.80
2019-05-03T05:03:05.913Z,5.90
2019-05-03T05:05:36.382Z,5.90
2019-05-03T05:10:36.234Z,6.00
2019-05-03T05:13:05.598Z,6.10
2019-05-03T05:15:35.353Z,6.10
2019-05-03T05:18:06.579Z,6.20
2019-05-03T05:20:49.290Z,6.20
2019-05-03T05:23:18.207Z,6.20
2019-05-03T05:25:51.526Z,6.20
2019-05-03T05:28:22.069Z,6.30
2019-05-03T05:30:51.251Z,6.40
2019-05-03T05:33:22.596Z,6.40
2019-05-03T05:35:51.664Z,6.40
2019-05-03T05:38:20.280Z,6.50
2019-05-03T05:40:49.126Z,6.60
2019-05-03T05:43:17.526Z,6.60
2019-05-03T05:45:46.223Z,6.70
2019-05-03T05:48:24.483Z,6.70
2019-05-03T05:50:52.634Z,6.80
2019-05-03T05:53:21.250Z,6.80
2019-05-03T05:55:57.402Z,6.90
2019-05-03T05:58:34.788Z,6.80
2019-05-03T06:01:05.839Z,6.90
2019-05-03T06:03:34.852Z,7.00
2019-05-03T06:06:05.414Z,7.10
2019-05-03T06:08:45.120Z,7.00
2019-05-03T06:11:25.809Z,7.10
2019-05-03T06:13:56.520Z,7.10
2019-05-03T06:16:45.109Z,7.20
2019-05-03T06:19:15.395Z,7.20
2019-05-03T06:21:47.807Z,7.40
2019-05-03T06:24:18.293Z,7.50
2019-05-03T06:27:01.152Z,7.70
2019-05-03T06:29:30.061Z,7.80
2019-05-03T06:32:18.459Z,7.80
2019-05-03T06:34:47.134Z,7.80
2019-05-03T06:37:20.122Z,7.80
2019-05-03T06:39:49.015Z,7.90
2019-05-03T06:42:19.273Z,7.90
2019-05-03T06:44:48.307Z,7.80
2019-05-03T06:47:17.016Z,7.80
2019-05-03T06:49:48.426Z,7.80
2019-05-03T06:52:19.687Z,7.90
2019-05-03T06:54:46.937Z,8.00
2019-05-03T06:57:17.304Z,8.20
2019-05-03T06:59:59.984Z,8.30
2019-05-03T07:02:39.388Z,8.20
2019-05-03T07:05:26.311Z,8.30
2019-05-03T07:07:59.905Z,8.40
2019-05-03T07:10:30.520Z,8.40
2019-05-03T07:13:04.925Z,8.40
2019-05-03T07:15:35.183Z,8.30
2019-05-03T07:18:05.840Z,8.30
2019-05-03T07:20:45.876Z,8.40
2019-05-03T07:23:15.622Z,8.40
2019-05-03T07:25:44.915Z,8.50
2019-05-03T07:28:14.995Z,8.50
2019-05-03T07:30:45.438Z,8.60
2019-05-03T07:33:16.206Z,8.70
2019-05-03T07:35:45.183Z,8.80
2019-05-03T07:38:15.501Z,8.90
2019-05-03T07:40:44.650Z,9.00
2019-05-03T07:43:14.872Z,9.00
2019-05-03T07:45:44.707Z,9.10
2019-05-03T07:48:15.053Z,9.10
2019-05-03T07:50:44.748Z,8.90
2019-05-03T07:53:15.032Z,8.90
2019-05-03T07:55:54.838Z,9.00
2019-05-03T07:58:25.525Z,9.10
2019-05-03T08:01:08.706Z,9.10
2019-05-03T08:03:34.699Z,9.20
2019-05-03T08:06:04.726Z,9.20
2019-05-03T08:08:35.428Z,9.30
2019-05-03T08:11:05.287Z,9.30
2019-05-03T08:13:35.570Z,9.40
2019-05-03T08:16:05.847Z,9.50
2019-05-03T08:18:35.573Z,9.40
2019-05-03T08:21:05.599Z,9.50
2019-05-03T08:23:35.388Z,9.60
2019-05-03T08:26:05.810Z,9.80
2019-05-03T08:28:35.232Z,9.70
2019-05-03T08:31:23.923Z,9.60
2019-05-03T08:34:05.653Z,9.50
2019-05-03T08:36:54.357Z,9.50
2019-05-03T08:39:25.202Z,9.50
2019-05-03T08:42:01.302Z,9.80
2019-05-03T08:44:30.284Z,9.90
2019-05-03T08:46:59.283Z,9.80
2019-05-03T08:49:28.283Z,9.70
2019-05-03T08:51:56.989Z,9.60
2019-05-03T08:54:25.728Z,9.50
2019-05-03T08:56:55.734Z,9.60
2019-05-03T08:59:29.806Z,9.70
2019-05-03T09:01:55.647Z,9.70
2019-05-03T09:04:36.247Z,9.70
2019-05-03T09:06:55.185Z,9.70
2019-05-03T09:09:30.506Z,9.70
2019-05-03T09:11:58.911Z,9.80
2019-05-03T09:14:38.809Z,9.80
2019-05-03T09:16:58.528Z,9.70
2019-05-03T09:19:27.191Z,9.60
2019-05-03T09:21:55.809Z,9.30
2019-05-03T09:24:24.684Z,9.20
2019-05-03T09:26:52.429Z,9.30
2019-05-03T09:29:21.030Z,9.50
2019-05-03T09:31:49.720Z,9.50
2019-05-03T09:34:18.393Z,9.60
2019-05-03T09:36:47.122Z,9.60
2019-05-03T09:39:15.775Z,9.70
2019-05-03T09:41:45.011Z,9.80
2019-05-03T09:44:15.122Z,9.60
2019-05-03T09:46:44.671Z,9.50
2019-05-03T09:49:16.406Z,9.60
2019-05-03T09:51:44.468Z,9.80
2019-05-03T09:54:14.915Z,10.10
2019-05-03T09:56:59.440Z,10.30
2019-05-03T09:59:28.870Z,10.60
2019-05-03T10:01:58.557Z,10.60
2019-05-03T10:04:27.504Z,10.50
2019-05-03T10:06:56.183Z,10.30
2019-05-03T10:09:26.169Z,10.30
2019-05-03T10:11:55.455Z,10.20
2019-05-03T10:14:24.336Z,10.00
2019-05-03T10:16:56.575Z,9.50
2019-05-03T10:19:36.698Z,9.40
2019-05-03T10:21:55.681Z,9.50
2019-05-03T10:24:24.399Z,9.50
2019-05-03T10:26:55.095Z,9.50
2019-05-03T10:29:25.092Z,9.80
2019-05-03T10:32:07.785Z,9.90
2019-05-03T10:34:36.757Z,10.00
2019-05-03T10:37:07.013Z,9.90
2019-05-03T10:39:36.289Z,9.90
2019-05-03T10:42:05.388Z,10.00
2019-05-03T10:44:35.714Z,10.20
2019-05-03T10:47:05.447Z,10.00
2019-05-03T10:49:35.259Z,9.90
2019-05-03T10:52:06.001Z,10.10
2019-05-03T10:54:35.879Z,10.40
2019-05-03T10:57:16.038Z,10.40
2019-05-03T10:59:45.071Z,10.50
2019-05-03T11:02:18.133Z,10.80
2019-05-03T11:04:47.208Z,10.90
2019-05-03T11:07:15.827Z,11.00
2019-05-03T11:09:49.748Z,11.00
2019-05-03T11:12:15.128Z,11.00
2019-05-03T11:14:45.554Z,11.10
2019-05-03T11:17:14.872Z,11.30
2019-05-03T11:19:45.409Z,11.50
2019-05-03T11:22:14.615Z,11.50
2019-05-03T11:24:45.434Z,11.30
2019-05-03T11:27:16.197Z,11.10
2019-05-03T11:29:45.191Z,11.10
2019-05-03T11:32:19.347Z,11.30
2019-05-03T11:34:52.701Z,11.40
2019-05-03T11:37:38.628Z,11.00
2019-05-03T11:40:07.533Z,10.70
2019-05-03T11:42:36.242Z,10.40
2019-05-03T11:45:07.852Z,10.30
2019-05-03T11:47:36.763Z,10.20
2019-05-03T11:50:06.676Z,10.10
2019-05-03T11:52:35.769Z,10.20
2019-05-03T11:55:11.286Z,10.40
2019-05-03T11:57:36.852Z,10.30
2019-05-03T12:00:07.215Z,10.20
2019-05-03T12:02:37.768Z,9.90
2019-05-03T12:05:15.138Z,9.80
2019-05-03T12:07:45.500Z,9.70
2019-05-03T12:10:29.813Z,9.80
2019-05-03T12:12:49.792Z,10.00
2019-05-03T12:15:19.245Z,10.10
2019-05-03T12:17:54.581Z,10.30
2019-05-03T12:20:21.622Z,10.40
2019-05-03T12:22:51.656Z,10.60
2019-05-03T12:25:21.452Z,10.90
2019-05-03T12:27:51.072Z,11.00
2019-05-03T12:30:19.808Z,11.00
2019-05-03T12:32:48.573Z,11.00
2019-05-03T12:35:17.263Z,10.90
2019-05-03T12:37:45.663Z,10.70
2019-05-03T12:40:14.987Z,10.60
2019-05-03T12:42:45.456Z,10.30
2019-05-03T12:45:15.265Z,10.20
2019-05-03T12:47:45.312Z,10.20
2019-05-03T12:50:15.683Z,10.20
2019-05-03T12:52:50.453Z,10.10
2019-05-03T12:55:15.501Z,10.10
2019-05-03T12:57:45.745Z,10.00
2019-05-03T13:00:22.324Z,10.30
2019-05-03T13:03:01.460Z,10.50
2019-05-03T13:05:30.916Z,10.60
2019-05-03T13:08:20.960Z,10.80
2019-05-03T13:10:49.848Z,10.90
2019-05-03T13:13:18.531Z,11.00
2019-05-03T13:15:47.131Z,11.30
2019-05-03T13:18:15.814Z,11.50
2019-05-03T13:20:45.339Z,11.60
2019-05-03T13:23:14.122Z,11.70
2019-05-03T13:25:44.622Z,11.60
2019-05-03T13:28:15.185Z,11.40
2019-05-03T13:30:45.314Z,11.10
2019-05-03T13:33:15.188Z,11.20
2019-05-03T13:35:44.616Z,11.10
2019-05-03T13:38:13.732Z,11.20
2019-05-03T13:40:42.444Z,11.40
2019-05-03T13:43:11.114Z,11.60
2019-05-03T13:45:39.746Z,11.50
2019-05-03T13:48:15.260Z,11.50
2019-05-03T13:50:44.650Z,11.20
2019-05-03T13:53:16.086Z,10.80
2019-05-03T13:55:44.844Z,10.50
2019-05-03T13:58:14.691Z,10.10
2019-05-03T14:00:45.383Z,9.90
2019-05-03T14:03:15.277Z,9.80
2019-05-03T14:05:44.820Z,9.90
2019-05-03T14:08:15.698Z,10.10
2019-05-03T14:10:45.517Z,10.10
2019-05-03T14:13:14.771Z,10.30
2019-05-03T14:15:45.194Z,10.50
2019-05-03T14:18:15.226Z,10.80
2019-05-03T14:20:58.408Z,10.80
2019-05-03T14:23:27.199Z,11.00
2019-05-03T14:25:56.008Z,11.30
2019-05-03T14:28:25.188Z,12.20
2019-05-03T14:30:54.807Z,14.20
2019-05-03T14:33:24.852Z,15.70
2019-05-03T14:35:54.745Z,15.70
2019-05-03T14:38:25.431Z,17.20
2019-05-03T14:40:55.112Z,16.00
2019-05-03T14:43:24.894Z,14.70
2019-05-03T14:45:54.971Z,14.00
2019-05-03T14:48:24.853Z,14.00
2019-05-03T14:50:57.122Z,14.50
2019-05-03T14:53:25.481Z,15.80
2019-05-03T14:55:58.884Z,18.10
2019-05-03T14:58:41.046Z,17.20
2019-05-03T15:01:11.382Z,16.30
2019-05-03T15:03:40.043Z,15.60
2019-05-03T15:06:07.788Z,15.50
2019-05-03T15:08:36.436Z,16.90
2019-05-03T15:11:05.292Z,17.40
2019-05-03T15:13:34.993Z,17.30
2019-05-03T15:16:05.254Z,16.90
2019-05-03T15:18:34.860Z,15.80
2019-05-03T15:21:05.479Z,15.20
2019-05-03T15:23:34.763Z,14.20
2019-05-03T15:26:05.153Z,14.00
2019-05-03T15:28:35.614Z,13.40
2019-05-03T15:31:04.670Z,13.20
2019-05-03T15:33:32.369Z,13.40
2019-05-03T15:36:01.041Z,13.80
2019-05-03T15:38:29.441Z,14.60
2019-05-03T15:40:57.839Z,14.90
2019-05-03T15:43:46.102Z,15.20
2019-05-03T15:46:21.600Z,16.60
2019-05-03T15:48:55.091Z,17.20
2019-05-03T15:51:24.634Z,17.10
2019-05-03T15:53:55.115Z,17.80
2019-05-03T15:56:25.249Z,18.90
2019-05-03T15:58:55.192Z,19.30
2019-05-03T16:01:24.839Z,18.60
2019-05-03T16:03:55.431Z,17.50
2019-05-03T16:06:24.832Z,16.40
2019-05-03T16:08:55.258Z,15.50
2019-05-03T16:11:25.445Z,15.30
2019-05-03T16:13:55.317Z,14.70
2019-05-03T16:16:24.814Z,14.00
2019-05-03T16:18:53.679Z,13.50
2019-05-03T16:21:22.415Z,13.10
2019-05-03T16:23:51.001Z,13.00
2019-05-03T16:26:19.696Z,12.40
2019-05-03T16:28:55.958Z,12.40
2019-05-03T16:31:26.657Z,12.30
2019-05-03T16:33:55.417Z,12.30
2019-05-03T16:36:24.029Z,12.40
2019-05-03T16:38:52.659Z,12.30
2019-05-03T16:41:21.322Z,12.20
2019-05-03T16:43:50.024Z,12.10
2019-05-03T16:46:18.698Z,12.20
2019-05-03T16:48:47.319Z,12.10
2019-05-03T16:51:17.284Z,11.90
2019-05-03T16:53:46.324Z,11.70
2019-05-03T16:56:16.535Z,11.50
2019-05-03T16:58:44.692Z,11.40
2019-05-03T17:01:17.790Z,11.20
2019-05-03T17:03:46.035Z,11.00
2019-05-03T17:06:28.943Z,10.70
2019-05-03T17:09:02.260Z,10.50
2019-05-03T17:11:31.232Z,10.40
2019-05-03T17:13:59.856Z,10.40
2019-05-03T17:16:28.539Z,10.20
2019-05-03T17:18:57.518Z,10.10
2019-05-03T17:21:25.571Z,10.10
2019-05-03T17:23:54.308Z,9.90
2019-05-03T17:26:24.881Z,9.70
2019-05-03T17:28:55.292Z,9.50
2019-05-03T17:31:24.450Z,9.10
2019-05-03T17:33:56.172Z,9.00
2019-05-03T17:36:25.057Z,8.90
2019-05-03T17:38:55.751Z,8.70
2019-05-03T17:41:41.213Z,8.60
2019-05-03T17:44:17.627Z,8.80
2019-05-03T17:46:46.533Z,8.60
2019-05-03T17:49:15.177Z,8.90
2019-05-03T17:51:45.631Z,9.00
2019-05-03T17:54:28.277Z,9.00
2019-05-03T17:57:01.565Z,9.00
2019-05-03T17:59:32.635Z,8.90
2019-05-03T18:02:19.757Z,8.80
2019-05-03T18:04:50.557Z,8.70
2019-05-03T18:07:21.163Z,8.60
2019-05-03T18:09:51.700Z,8.60
2019-05-03T18:12:20.576Z,8.50
2019-05-03T18:14:49.182Z,8.60
2019-05-03T18:17:17.916Z,8.60
2019-05-03T18:19:47.892Z,8.50
2019-05-03T18:22:16.910Z,8.50
2019-05-03T18:24:45.641Z,8.50
2019-05-03T18:27:15.065Z,8.40
2019-05-03T18:29:44.944Z,8.30
2019-05-03T18:32:14.735Z,8.20
2019-05-03T18:34:45.354Z,8.20
2019-05-03T18:37:15.267Z,8.20
2019-05-03T18:39:45.222Z,8.10
2019-05-03T18:42:15.972Z,8.10
2019-05-03T18:44:49.396Z,8.10
2019-05-03T18:47:22.726Z,8.10
2019-05-03T18:49:51.641Z,8.00
2019-05-03T18:52:20.248Z,7.70
2019-05-03T18:54:48.964Z,7.60
2019-05-03T18:57:17.653Z,7.10
2019-05-03T18:59:46.345Z,7.00
2019-05-03T19:02:15.051Z,6.90
2019-05-03T19:04:48.230Z,6.90
2019-05-03T19:07:37.191Z,6.70
2019-05-03T19:10:11.541Z,6.80
2019-05-03T19:12:42.148Z,6.90
2019-05-03T19:15:11.839Z,6.90
2019-05-03T19:17:48.685Z,6.90
2019-05-03T19:20:18.819Z,6.90
2019-05-03T19:22:47.808Z,6.70
2019-05-03T19:25:16.479Z,6.70
2019-05-03T19:27:45.191Z,6.70
2019-05-03T19:30:14.889Z,6.70
2019-05-03T19:32:44.980Z,6.70
2019-05-03T19:35:15.716Z,6.70
2019-05-03T19:37:46.549Z,6.60
2019-05-03T19:40:15.481Z,6.80
2019-05-03T19:42:44.739Z,6.80
2019-05-03T19:45:15.214Z,6.80
2019-05-03T19:47:44.797Z,6.90
2019-05-03T19:50:15.526Z,6.80
2019-05-03T19:53:05.160Z,6.90
2019-05-03T19:55:34.267Z,6.90
2019-05-03T19:58:05.401Z,7.00
2019-05-03T20:00:35.684Z,6.90
2019-05-03T20:03:12.084Z,7.00
2019-05-03T20:05:45.667Z,7.00
2019-05-03T20:08:16.300Z,7.10
2019-05-03T20:10:48.894Z,7.10
2019-05-03T20:13:17.818Z,6.80
2019-05-03T20:15:46.431Z,6.80
2019-05-03T20:18:17.885Z,6.80
2019-05-03T20:20:45.724Z,7.00
2019-05-03T20:23:14.708Z,6.90
2019-05-03T20:25:42.430Z,6.80
2019-05-03T20:28:10.856Z,6.80
2019-05-03T20:30:39.523Z,6.70
2019-05-03T20:33:08.180Z,6.70
2019-05-03T20:35:36.806Z,6.60
2019-05-03T20:38:05.464Z,6.50
2019-05-03T20:40:35.057Z,6.60
2019-05-03T20:43:05.816Z,6.60
2019-05-03T20:45:36.421Z,6.70
2019-05-03T20:48:09.962Z,6.80
2019-05-03T20:50:38.912Z,6.80
2019-05-03T20:53:07.616Z,6.90
2019-05-03T20:55:36.213Z,6.70
2019-05-03T20:58:07.903Z,6.60
2019-05-03T21:00:35.598Z,6.60
2019-05-03T21:03:04.921Z,6.50
2019-05-03T21:05:36.841Z,6.50
2019-05-03T21:08:05.601Z,6.30
2019-05-03T21:10:34.711Z,6.30
2019-05-03T21:13:05.303Z,6.30
2019-05-03T21:15:35.655Z,6.30
2019-05-03T21:18:06.204Z,6.30
2019-05-03T21:20:39.693Z,6.30
2019-05-03T21:23:16.275Z,6.30
2019-05-03T21:26:03.611Z,6.40
2019-05-03T21:28:17.521Z,6.40
2019-05-03T21:30:46.184Z,6.30
2019-05-03T21:33:15.783Z,6.20
2019-05-03T21:35:45.211Z,6.30
2019-05-03T21:38:14.309Z,6.30
2019-05-03T21:40:42.915Z,6.20
2019-05-03T21:43:11.524Z,6.20
2019-05-03T21:45:47.950Z,6.30
2019-05-03T21:48:21.371Z,6.30
2019-05-03T21:51:05.341Z,6.20
2019-05-03T21:53:34.446Z,6.10
2019-05-03T21:56:03.594Z,6.10
2019-05-03T21:58:32.295Z,6.00
2019-05-03T22:01:02.591Z,5.80
2019-05-03T22:03:31.492Z,5.90
2019-05-03T22:06:00.079Z,5.90
2019-05-03T22:08:28.764Z,5.90
2019-05-03T22:10:57.434Z,5.80
2019-05-03T22:13:26.066Z,5.80
2019-05-03T22:16:11.462Z,5.80
2019-05-03T22:18:40.956Z,5.80
2019-05-03T22:21:20.062Z,5.60
2019-05-03T22:24:05.375Z,5.70
2019-05-03T22:26:54.186Z,5.70
2019-05-03T22:29:25.230Z,5.80
2019-05-03T22:31:54.838Z,5.80
2019-05-03T22:34:25.732Z,5.80
2019-05-03T22:36:54.916Z,5.80
2019-05-03T22:39:24.968Z,5.70
2019-05-03T22:41:54.241Z,5.70
2019-05-03T22:44:25.092Z,5.60
2019-05-03T22:46:55.134Z,5.60
2019-05-03T22:49:26.069Z,5.60
2019-05-03T22:51:54.950Z,5.60
2019-05-03T22:54:24.571Z,5.50
2019-05-03T22:56:55.561Z,5.40
2019-05-03T22:59:25.230Z,5.50
2019-05-03T23:01:54.772Z,5.50
2019-05-03T23:04:25.380Z,5.60
2019-05-03T23:06:55.485Z,5.60
2019-05-03T23:09:25.093Z,5.60
2019-05-03T23:11:54.973Z,5.60
2019-05-03T23:14:25.217Z,5.50
2019-05-03T23:16:53.647Z,5.50
2019-05-03T23:19:22.269Z,5.50
2019-05-03T23:21:55.208Z,5.50
2019-05-03T23:24:24.704Z,5.50
2019-05-03T23:26:53.879Z,5.60
2019-05-03T23:29:22.561Z,5.60
2019-05-03T23:31:51.276Z,5.70
2019-05-03T23:34:19.943Z,5.70
2019-05-03T23:36:48.566Z,5.80
2019-05-03T23:39:17.166Z,5.80
2019-05-03T23:41:45.867Z,5.70
2019-05-03T23:44:15.191Z,5.80
2019-05-03T23:46:45.877Z,5.80
2019-05-03T23:49:14.768Z,5.70
2019-05-03T23:51:55.058Z,5.60
2019-05-03T23:54:24.714Z,5.70
2019-05-03T23:56:54.720Z,5.70
2019-05-03T23:59:23.816Z,5.70
